sensor_id;sensor_type;location;lat;lon;timestamp;P1;durP1;ratioP1;P2;durP2;ratioP2
17283;SDS011;8760;52.248;20.952;2022-11-09T00:00:14;25.70;;;16.07;;
17283;SDS011;8760;52.248;20.952;2022-11-09T00:02:41;23.27;;;16.00;;
17283;SDS011;8760;52.248;20.952;2022-11-09T00:05:08;24.90;;;16.53;;
17283;SDS011;8760;52.248;20.952;2022-11-09T00:07:35;25.87;;;17.47;;
17283;SDS011;8760;52.248;20.952;2022-11-09T00:10:02;24.10;;;16.73;;
17283;SDS011;8760;52.248;20.952;2022-11-09T00:12:31;23.93;;;16.77;;
17283;SDS011;8760;52.248;20.952;2022-11-09T00:14:57;23.53;;;16.77;;
17283;SDS011;8760;52.248;20.952;2022-11-09T00:17:24;21.80;;;16.13;;
17283;SDS011;8760;52.248;20.952;2022-11-09T00:19:52;23.73;;;15.83;;
17283;SDS011;8760;52.248;20.952;2022-11-09T00:22:19;26.07;;;16.40;;
17283;SDS011;8760;52.248;20.952;2022-11-09T00:24:46;23.77;;;16.43;;
17283;SDS011;8760;52.248;20.952;2022-11-09T00:27:13;23.10;;;16.63;;
17283;SDS011;8760;52.248;20.952;2022-11-09T00:29:41;20.63;;;15.10;;
17283;SDS011;8760;52.248;20.952;2022-11-09T00:32:08;25.83;;;16.90;;
17283;SDS011;8760;52.248;20.952;2022-11-09T00:34:34;24.17;;;16.97;;
17283;SDS011;8760;52.248;20.952;2022-11-09T00:37:01;24.50;;;15.87;;
17283;SDS011;8760;52.248;20.952;2022-11-09T00:39:28;26.30;;;17.47;;
17283;SDS011;8760;52.248;20.952;2022-11-09T00:41:55;22.60;;;16.20;;
17283;SDS011;8760;52.248;20.952;2022-11-09T00:44:21;25.73;;;16.00;;
17283;SDS011;8760;52.248;20.952;2022-11-09T00:46:50;22.77;;;16.77;;
17283;SDS011;8760;52.248;20.952;2022-11-09T00:49:16;27.23;;;16.77;;
17283;SDS011;8760;52.248;20.952;2022-11-09T00:51:43;26.60;;;16.33;;
17283;SDS011;8760;52.248;20.952;2022-11-09T00:54:10;22.97;;;16.23;;
17283;SDS011;8760;52.248;20.952;2022-11-09T00:56:37;28.37;;;16.90;;
17283;SDS011;8760;52.248;20.952;2022-11-09T00:59:04;28.77;;;16.77;;
17283;SDS011;8760;52.248;20.952;2022-11-09T01:01:31;24.37;;;16.67;;
17283;SDS011;8760;52.248;20.952;2022-11-09T01:03:59;25.67;;;16.63;;
17283;SDS011;8760;52.248;20.952;2022-11-09T01:06:26;28.07;;;17.23;;
17283;SDS011;8760;52.248;20.952;2022-11-09T01:08:53;26.10;;;16.20;;
17283;SDS011;8760;52.248;20.952;2022-11-09T01:11:20;22.33;;;16.97;;
17283;SDS011;8760;52.248;20.952;2022-11-09T01:13:47;25.63;;;17.17;;
17283;SDS011;8760;52.248;20.952;2022-11-09T01:16:16;22.87;;;16.60;;
17283;SDS011;8760;52.248;20.952;2022-11-09T01:18:44;25.50;;;16.60;;
17283;SDS011;8760;52.248;20.952;2022-11-09T01:21:14;23.33;;;16.67;;
17283;SDS011;8760;52.248;20.952;2022-11-09T01:23:41;26.17;;;17.10;;
17283;SDS011;8760;52.248;20.952;2022-11-09T01:26:09;25.63;;;16.73;;
17283;SDS011;8760;52.248;20.952;2022-11-09T01:28:38;25.73;;;16.73;;
17283;SDS011;8760;52.248;20.952;2022-11-09T01:31:05;26.53;;;17.10;;
17283;SDS011;8760;52.248;20.952;2022-11-09T01:33:33;24.13;;;17.47;;
17283;SDS011;8760;52.248;20.952;2022-11-09T01:36:01;25.63;;;16.87;;
17283;SDS011;8760;52.248;20.952;2022-11-09T01:38:29;26.97;;;17.03;;
17283;SDS011;8760;52.248;20.952;2022-11-09T01:40:56;24.10;;;16.53;;
17283;SDS011;8760;52.248;20.952;2022-11-09T01:43:23;25.57;;;17.33;;
17283;SDS011;8760;52.248;20.952;2022-11-09T01:45:51;25.13;;;17.27;;
17283;SDS011;8760;52.248;20.952;2022-11-09T01:48:22;25.07;;;16.47;;
17283;SDS011;8760;52.248;20.952;2022-11-09T01:50:56;26.73;;;17.90;;
17283;SDS011;8760;52.248;20.952;2022-11-09T01:53:27;26.13;;;16.53;;
17283;SDS011;8760;52.248;20.952;2022-11-09T01:56:00;26.33;;;17.33;;
17283;SDS011;8760;52.248;20.952;2022-11-09T01:58:33;28.53;;;18.07;;
17283;SDS011;8760;52.248;20.952;2022-11-09T02:01:04;28.23;;;17.37;;
17283;SDS011;8760;52.248;20.952;2022-11-09T02:03:36;28.30;;;17.13;;
17283;SDS011;8760;52.248;20.952;2022-11-09T02:06:08;28.23;;;17.17;;
17283;SDS011;8760;52.248;20.952;2022-11-09T02:08:40;27.00;;;16.60;;
17283;SDS011;8760;52.248;20.952;2022-11-09T02:11:10;28.07;;;18.43;;
17283;SDS011;8760;52.248;20.952;2022-11-09T02:13:38;28.97;;;18.30;;
17283;SDS011;8760;52.248;20.952;2022-11-09T02:16:08;28.63;;;18.80;;
17283;SDS011;8760;52.248;20.952;2022-11-09T02:18:37;30.30;;;18.60;;
17283;SDS011;8760;52.248;20.952;2022-11-09T02:21:10;32.47;;;18.87;;
17283;SDS011;8760;52.248;20.952;2022-11-09T02:23:36;30.43;;;18.03;;
17283;SDS011;8760;52.248;20.952;2022-11-09T02:26:04;25.90;;;18.00;;
17283;SDS011;8760;52.248;20.952;2022-11-09T02:28:35;32.17;;;19.10;;
17283;SDS011;8760;52.248;20.952;2022-11-09T02:31:04;32.10;;;19.43;;
17283;SDS011;8760;52.248;20.952;2022-11-09T02:33:43;27.70;;;18.77;;
17283;SDS011;8760;52.248;20.952;2022-11-09T02:36:20;29.83;;;18.97;;
17283;SDS011;8760;52.248;20.952;2022-11-09T02:38:47;29.77;;;18.43;;
17283;SDS011;8760;52.248;20.952;2022-11-09T02:41:15;28.50;;;18.30;;
17283;SDS011;8760;52.248;20.952;2022-11-09T02:43:42;27.70;;;17.97;;
17283;SDS011;8760;52.248;20.952;2022-11-09T02:46:09;32.47;;;19.73;;
17283;SDS011;8760;52.248;20.952;2022-11-09T02:48:36;30.40;;;18.80;;
17283;SDS011;8760;52.248;20.952;2022-11-09T02:51:03;28.43;;;18.73;;
17283;SDS011;8760;52.248;20.952;2022-11-09T02:53:31;28.23;;;18.27;;
17283;SDS011;8760;52.248;20.952;2022-11-09T02:55:58;30.40;;;19.23;;
17283;SDS011;8760;52.248;20.952;2022-11-09T02:58:26;30.27;;;19.40;;
17283;SDS011;8760;52.248;20.952;2022-11-09T03:00:53;30.90;;;18.87;;
17283;SDS011;8760;52.248;20.952;2022-11-09T03:03:20;31.07;;;19.00;;
17283;SDS011;8760;52.248;20.952;2022-11-09T03:05:46;29.33;;;20.00;;
17283;SDS011;8760;52.248;20.952;2022-11-09T03:08:13;29.90;;;18.97;;
17283;SDS011;8760;52.248;20.952;2022-11-09T03:10:41;28.07;;;18.47;;
17283;SDS011;8760;52.248;20.952;2022-11-09T03:13:08;33.30;;;20.33;;
17283;SDS011;8760;52.248;20.952;2022-11-09T03:15:35;28.93;;;19.30;;
17283;SDS011;8760;52.248;20.952;2022-11-09T03:18:02;27.50;;;18.67;;
17283;SDS011;8760;52.248;20.952;2022-11-09T03:20:29;30.37;;;19.47;;
17283;SDS011;8760;52.248;20.952;2022-11-09T03:22:57;32.83;;;21.07;;
17283;SDS011;8760;52.248;20.952;2022-11-09T03:25:24;32.43;;;19.80;;
17283;SDS011;8760;52.248;20.952;2022-11-09T03:27:56;32.43;;;19.17;;
17283;SDS011;8760;52.248;20.952;2022-11-09T03:30:23;27.03;;;19.10;;
17283;SDS011;8760;52.248;20.952;2022-11-09T03:32:51;31.73;;;20.33;;
17283;SDS011;8760;52.248;20.952;2022-11-09T03:35:23;30.97;;;19.73;;
17283;SDS011;8760;52.248;20.952;2022-11-09T03:37:50;30.73;;;19.53;;
17283;SDS011;8760;52.248;20.952;2022-11-09T03:40:17;33.30;;;19.97;;
17283;SDS011;8760;52.248;20.952;2022-11-09T03:42:44;32.03;;;19.43;;
17283;SDS011;8760;52.248;20.952;2022-11-09T03:45:13;28.30;;;18.90;;
17283;SDS011;8760;52.248;20.952;2022-11-09T03:47:41;30.60;;;20.13;;
17283;SDS011;8760;52.248;20.952;2022-11-09T03:50:09;27.83;;;18.67;;
17283;SDS011;8760;52.248;20.952;2022-11-09T03:52:37;31.73;;;19.97;;
17283;SDS011;8760;52.248;20.952;2022-11-09T03:55:04;30.90;;;19.77;;
17283;SDS011;8760;52.248;20.952;2022-11-09T03:57:31;31.00;;;20.40;;
17283;SDS011;8760;52.248;20.952;2022-11-09T03:59:58;31.37;;;20.10;;
17283;SDS011;8760;52.248;20.952;2022-11-09T04:02:26;33.57;;;20.60;;
17283;SDS011;8760;52.248;20.952;2022-11-09T04:04:53;29.07;;;20.23;;
17283;SDS011;8760;52.248;20.952;2022-11-09T04:07:20;31.67;;;21.17;;
17283;SDS011;8760;52.248;20.952;2022-11-09T04:09:47;31.43;;;20.13;;
17283;SDS011;8760;52.248;20.952;2022-11-09T04:12:13;33.13;;;20.27;;
17283;SDS011;8760;52.248;20.952;2022-11-09T04:14:42;30.70;;;19.50;;
17283;SDS011;8760;52.248;20.952;2022-11-09T04:17:09;35.17;;;20.50;;
17283;SDS011;8760;52.248;20.952;2022-11-09T04:19:37;33.40;;;20.60;;
17283;SDS011;8760;52.248;20.952;2022-11-09T04:22:03;33.40;;;21.27;;
17283;SDS011;8760;52.248;20.952;2022-11-09T04:24:30;33.77;;;20.50;;
17283;SDS011;8760;52.248;20.952;2022-11-09T04:26:57;31.93;;;21.27;;
17283;SDS011;8760;52.248;20.952;2022-11-09T04:29:24;34.70;;;20.60;;
17283;SDS011;8760;52.248;20.952;2022-11-09T04:31:51;32.37;;;20.77;;
17283;SDS011;8760;52.248;20.952;2022-11-09T04:34:18;32.63;;;20.27;;
17283;SDS011;8760;52.248;20.952;2022-11-09T04:36:46;30.37;;;20.33;;
17283;SDS011;8760;52.248;20.952;2022-11-09T04:39:12;33.27;;;20.57;;
17283;SDS011;8760;52.248;20.952;2022-11-09T04:41:39;32.17;;;20.20;;
17283;SDS011;8760;52.248;20.952;2022-11-09T04:44:06;32.37;;;21.33;;
17283;SDS011;8760;52.248;20.952;2022-11-09T04:46:33;32.10;;;20.53;;
17283;SDS011;8760;52.248;20.952;2022-11-09T04:49:00;34.87;;;21.07;;
17283;SDS011;8760;52.248;20.952;2022-11-09T04:51:27;33.77;;;21.40;;
17283;SDS011;8760;52.248;20.952;2022-11-09T04:53:55;34.63;;;21.60;;
17283;SDS011;8760;52.248;20.952;2022-11-09T04:56:22;34.50;;;20.97;;
17283;SDS011;8760;52.248;20.952;2022-11-09T04:58:49;31.23;;;20.90;;
17283;SDS011;8760;52.248;20.952;2022-11-09T05:01:15;34.30;;;21.10;;
17283;SDS011;8760;52.248;20.952;2022-11-09T05:03:42;33.73;;;21.17;;
17283;SDS011;8760;52.248;20.952;2022-11-09T05:06:09;35.43;;;21.07;;
17283;SDS011;8760;52.248;20.952;2022-11-09T05:08:54;33.07;;;20.73;;
17283;SDS011;8760;52.248;20.952;2022-11-09T05:11:22;36.53;;;20.70;;
17283;SDS011;8760;52.248;20.952;2022-11-09T05:13:49;34.90;;;21.83;;
17283;SDS011;8760;52.248;20.952;2022-11-09T05:16:16;35.47;;;21.50;;
17283;SDS011;8760;52.248;20.952;2022-11-09T05:18:43;32.90;;;21.77;;
17283;SDS011;8760;52.248;20.952;2022-11-09T05:21:10;39.00;;;22.77;;
17283;SDS011;8760;52.248;20.952;2022-11-09T05:23:37;33.90;;;21.67;;
17283;SDS011;8760;52.248;20.952;2022-11-09T05:26:23;33.67;;;21.43;;
17283;SDS011;8760;52.248;20.952;2022-11-09T05:28:51;35.63;;;21.17;;
17283;SDS011;8760;52.248;20.952;2022-11-09T05:31:18;32.73;;;21.47;;
17283;SDS011;8760;52.248;20.952;2022-11-09T05:33:47;36.47;;;21.00;;
17283;SDS011;8760;52.248;20.952;2022-11-09T05:36:15;37.97;;;21.13;;
17283;SDS011;8760;52.248;20.952;2022-11-09T05:38:41;34.73;;;22.53;;
17283;SDS011;8760;52.248;20.952;2022-11-09T05:41:08;33.20;;;21.00;;
17283;SDS011;8760;52.248;20.952;2022-11-09T05:43:36;39.37;;;22.90;;
17283;SDS011;8760;52.248;20.952;2022-11-09T05:46:04;38.83;;;22.57;;
17283;SDS011;8760;52.248;20.952;2022-11-09T05:48:31;35.03;;;21.40;;
17283;SDS011;8760;52.248;20.952;2022-11-09T05:51:00;35.40;;;21.87;;
17283;SDS011;8760;52.248;20.952;2022-11-09T05:53:29;38.03;;;22.10;;
17283;SDS011;8760;52.248;20.952;2022-11-09T05:55:59;35.97;;;22.33;;
17283;SDS011;8760;52.248;20.952;2022-11-09T05:58:27;38.27;;;22.03;;
17283;SDS011;8760;52.248;20.952;2022-11-09T06:00:56;36.00;;;22.50;;
17283;SDS011;8760;52.248;20.952;2022-11-09T06:03:23;35.67;;;21.63;;
17283;SDS011;8760;52.248;20.952;2022-11-09T06:05:50;35.07;;;21.43;;
17283;SDS011;8760;52.248;20.952;2022-11-09T06:08:17;34.97;;;21.63;;
17283;SDS011;8760;52.248;20.952;2022-11-09T06:10:44;38.17;;;22.60;;
17283;SDS011;8760;52.248;20.952;2022-11-09T06:13:11;38.40;;;23.07;;
17283;SDS011;8760;52.248;20.952;2022-11-09T06:15:37;38.70;;;23.20;;
17283;SDS011;8760;52.248;20.952;2022-11-09T06:18:05;38.67;;;22.47;;
17283;SDS011;8760;52.248;20.952;2022-11-09T06:20:32;40.03;;;22.77;;
17283;SDS011;8760;52.248;20.952;2022-11-09T06:23:00;40.13;;;23.33;;
17283;SDS011;8760;52.248;20.952;2022-11-09T06:25:27;37.00;;;22.47;;
17283;SDS011;8760;52.248;20.952;2022-11-09T06:27:55;38.53;;;23.57;;
17283;SDS011;8760;52.248;20.952;2022-11-09T06:30:22;39.87;;;23.43;;
17283;SDS011;8760;52.248;20.952;2022-11-09T06:32:49;36.53;;;22.70;;
17283;SDS011;8760;52.248;20.952;2022-11-09T06:35:17;37.10;;;22.47;;
17283;SDS011;8760;52.248;20.952;2022-11-09T06:37:44;34.80;;;22.60;;
17283;SDS011;8760;52.248;20.952;2022-11-09T06:40:11;37.40;;;22.43;;
17283;SDS011;8760;52.248;20.952;2022-11-09T06:42:39;40.30;;;23.53;;
17283;SDS011;8760;52.248;20.952;2022-11-09T06:45:06;34.70;;;22.50;;
17283;SDS011;8760;52.248;20.952;2022-11-09T06:47:34;37.17;;;22.93;;
17283;SDS011;8760;52.248;20.952;2022-11-09T06:50:00;39.77;;;23.27;;
17283;SDS011;8760;52.248;20.952;2022-11-09T06:52:29;39.93;;;22.57;;
17283;SDS011;8760;52.248;20.952;2022-11-09T06:54:55;40.90;;;22.60;;
17283;SDS011;8760;52.248;20.952;2022-11-09T06:57:22;38.53;;;23.13;;
17283;SDS011;8760;52.248;20.952;2022-11-09T06:59:49;39.93;;;23.77;;
17283;SDS011;8760;52.248;20.952;2022-11-09T07:02:16;38.63;;;22.17;;
17283;SDS011;8760;52.248;20.952;2022-11-09T07:04:43;40.10;;;24.57;;
17283;SDS011;8760;52.248;20.952;2022-11-09T07:07:09;39.40;;;23.20;;
17283;SDS011;8760;52.248;20.952;2022-11-09T07:09:38;37.93;;;23.87;;
17283;SDS011;8760;52.248;20.952;2022-11-09T07:12:05;37.67;;;23.03;;
17283;SDS011;8760;52.248;20.952;2022-11-09T07:14:32;38.37;;;23.33;;
17283;SDS011;8760;52.248;20.952;2022-11-09T07:16:58;37.60;;;23.33;;
17283;SDS011;8760;52.248;20.952;2022-11-09T07:19:26;36.63;;;22.63;;
17283;SDS011;8760;52.248;20.952;2022-11-09T07:21:54;40.03;;;22.97;;
17283;SDS011;8760;52.248;20.952;2022-11-09T07:24:21;38.43;;;22.87;;
17283;SDS011;8760;52.248;20.952;2022-11-09T07:26:49;37.27;;;23.20;;
17283;SDS011;8760;52.248;20.952;2022-11-09T07:29:16;35.73;;;22.37;;
17283;SDS011;8760;52.248;20.952;2022-11-09T07:31:43;38.50;;;23.83;;
17283;SDS011;8760;52.248;20.952;2022-11-09T07:34:09;38.20;;;22.90;;
17283;SDS011;8760;52.248;20.952;2022-11-09T07:36:36;37.17;;;22.60;;
17283;SDS011;8760;52.248;20.952;2022-11-09T07:39:03;36.03;;;22.13;;
17283;SDS011;8760;52.248;20.952;2022-11-09T07:41:30;35.10;;;22.27;;
17283;SDS011;8760;52.248;20.952;2022-11-09T07:43:58;38.77;;;23.10;;
17283;SDS011;8760;52.248;20.952;2022-11-09T07:46:25;37.47;;;22.80;;
17283;SDS011;8760;52.248;20.952;2022-11-09T07:48:52;38.03;;;22.93;;
17283;SDS011;8760;52.248;20.952;2022-11-09T07:51:19;39.40;;;23.10;;
17283;SDS011;8760;52.248;20.952;2022-11-09T07:53:46;37.50;;;23.97;;
17283;SDS011;8760;52.248;20.952;2022-11-09T07:56:13;39.33;;;23.93;;
17283;SDS011;8760;52.248;20.952;2022-11-09T07:58:39;39.57;;;22.63;;
17283;SDS011;8760;52.248;20.952;2022-11-09T08:01:08;36.93;;;22.77;;
17283;SDS011;8760;52.248;20.952;2022-11-09T08:03:35;37.90;;;24.03;;
17283;SDS011;8760;52.248;20.952;2022-11-09T08:06:02;36.33;;;22.33;;
17283;SDS011;8760;52.248;20.952;2022-11-09T08:08:29;39.97;;;23.27;;
17283;SDS011;8760;52.248;20.952;2022-11-09T08:10:56;38.27;;;23.80;;
17283;SDS011;8760;52.248;20.952;2022-11-09T08:13:23;33.40;;;21.47;;
17283;SDS011;8760;52.248;20.952;2022-11-09T08:15:50;36.90;;;21.67;;
17283;SDS011;8760;52.248;20.952;2022-11-09T08:18:19;37.13;;;22.80;;
17283;SDS011;8760;52.248;20.952;2022-11-09T08:20:47;34.50;;;22.37;;
17283;SDS011;8760;52.248;20.952;2022-11-09T08:23:14;33.03;;;21.37;;
17283;SDS011;8760;52.248;20.952;2022-11-09T08:25:43;35.27;;;22.03;;
17283;SDS011;8760;52.248;20.952;2022-11-09T08:28:10;30.57;;;21.30;;
17283;SDS011;8760;52.248;20.952;2022-11-09T08:30:37;34.40;;;21.53;;
17283;SDS011;8760;52.248;20.952;2022-11-09T08:33:04;30.90;;;21.40;;
17283;SDS011;8760;52.248;20.952;2022-11-09T08:35:32;31.40;;;20.10;;
17283;SDS011;8760;52.248;20.952;2022-11-09T08:37:59;32.83;;;21.77;;
17283;SDS011;8760;52.248;20.952;2022-11-09T08:40:28;36.60;;;22.10;;
17283;SDS011;8760;52.248;20.952;2022-11-09T08:42:59;30.53;;;21.27;;
17283;SDS011;8760;52.248;20.952;2022-11-09T08:45:27;34.37;;;21.17;;
17283;SDS011;8760;52.248;20.952;2022-11-09T08:47:56;33.70;;;20.80;;
17283;SDS011;8760;52.248;20.952;2022-11-09T08:50:23;29.50;;;20.47;;
17283;SDS011;8760;52.248;20.952;2022-11-09T08:52:51;29.70;;;20.83;;
17283;SDS011;8760;52.248;20.952;2022-11-09T08:55:18;27.63;;;19.87;;
17283;SDS011;8760;52.248;20.952;2022-11-09T08:57:45;31.30;;;19.60;;
17283;SDS011;8760;52.248;20.952;2022-11-09T09:00:13;27.97;;;20.47;;
17283;SDS011;8760;52.248;20.952;2022-11-09T09:02:40;32.17;;;21.53;;
17283;SDS011;8760;52.248;20.952;2022-11-09T09:05:07;29.37;;;21.23;;
17283;SDS011;8760;52.248;20.952;2022-11-09T09:07:34;31.43;;;20.93;;
17283;SDS011;8760;52.248;20.952;2022-11-09T09:10:03;30.17;;;21.07;;
17283;SDS011;8760;52.248;20.952;2022-11-09T09:12:30;28.63;;;20.63;;
17283;SDS011;8760;52.248;20.952;2022-11-09T09:14:57;27.73;;;20.47;;
17283;SDS011;8760;52.248;20.952;2022-11-09T09:17:23;28.60;;;20.13;;
17283;SDS011;8760;52.248;20.952;2022-11-09T09:19:51;31.43;;;20.20;;
17283;SDS011;8760;52.248;20.952;2022-11-09T09:22:17;28.47;;;20.43;;
17283;SDS011;8760;52.248;20.952;2022-11-09T09:24:45;34.70;;;20.73;;
17283;SDS011;8760;52.248;20.952;2022-11-09T09:27:13;30.47;;;20.93;;
17283;SDS011;8760;52.248;20.952;2022-11-09T09:29:40;28.13;;;20.30;;
17283;SDS011;8760;52.248;20.952;2022-11-09T09:32:07;32.27;;;19.93;;
17283;SDS011;8760;52.248;20.952;2022-11-09T09:34:34;31.07;;;20.57;;
17283;SDS011;8760;52.248;20.952;2022-11-09T09:37:01;31.33;;;20.47;;
17283;SDS011;8760;52.248;20.952;2022-11-09T09:39:27;30.03;;;20.53;;
17283;SDS011;8760;52.248;20.952;2022-11-09T09:41:54;28.97;;;19.83;;
17283;SDS011;8760;52.248;20.952;2022-11-09T09:44:27;32.83;;;20.43;;
17283;SDS011;8760;52.248;20.952;2022-11-09T09:46:57;32.20;;;19.43;;
17283;SDS011;8760;52.248;20.952;2022-11-09T09:49:33;26.80;;;19.67;;
17283;SDS011;8760;52.248;20.952;2022-11-09T09:52:04;27.90;;;20.57;;
17283;SDS011;8760;52.248;20.952;2022-11-09T09:54:38;30.07;;;21.77;;
17283;SDS011;8760;52.248;20.952;2022-11-09T09:57:11;30.97;;;21.37;;
17283;SDS011;8760;52.248;20.952;2022-11-09T09:59:48;31.33;;;21.50;;
17283;SDS011;8760;52.248;20.952;2022-11-09T10:02:19;30.27;;;20.93;;
17283;SDS011;8760;52.248;20.952;2022-11-09T10:04:48;36.03;;;21.77;;
17283;SDS011;8760;52.248;20.952;2022-11-09T10:07:18;32.67;;;21.07;;
17283;SDS011;8760;52.248;20.952;2022-11-09T10:10:02;28.93;;;20.83;;
17283;SDS011;8760;52.248;20.952;2022-11-09T10:12:40;31.80;;;21.43;;
17283;SDS011;8760;52.248;20.952;2022-11-09T10:15:24;32.17;;;20.90;;
17283;SDS011;8760;52.248;20.952;2022-11-09T10:17:58;29.07;;;20.90;;
17283;SDS011;8760;52.248;20.952;2022-11-09T10:20:38;32.17;;;21.27;;
17283;SDS011;8760;52.248;20.952;2022-11-09T10:26:14;35.10;;;21.23;;
17283;SDS011;8760;52.248;20.952;2022-11-09T10:28:44;31.37;;;20.63;;
17283;SDS011;8760;52.248;20.952;2022-11-09T10:31:22;31.50;;;20.90;;
17283;SDS011;8760;52.248;20.952;2022-11-09T10:33:50;32.37;;;20.70;;
17283;SDS011;8760;52.248;20.952;2022-11-09T10:36:23;32.17;;;20.93;;
17283;SDS011;8760;52.248;20.952;2022-11-09T10:38:55;31.07;;;22.03;;
17283;SDS011;8760;52.248;20.952;2022-11-09T10:41:26;35.07;;;21.43;;
17283;SDS011;8760;52.248;20.952;2022-11-09T10:43:56;30.90;;;20.87;;
17283;SDS011;8760;52.248;20.952;2022-11-09T10:46:25;29.70;;;20.17;;
17283;SDS011;8760;52.248;20.952;2022-11-09T10:48:52;32.20;;;20.30;;
17283;SDS011;8760;52.248;20.952;2022-11-09T10:51:30;31.07;;;21.20;;
17283;SDS011;8760;52.248;20.952;2022-11-09T10:54:15;36.97;;;21.00;;
17283;SDS011;8760;52.248;20.952;2022-11-09T10:56:46;28.87;;;20.50;;
17283;SDS011;8760;52.248;20.952;2022-11-09T11:07:50;30.23;;;21.43;;
17283;SDS011;8760;52.248;20.952;2022-11-09T11:10:17;32.67;;;21.30;;
17283;SDS011;8760;52.248;20.952;2022-11-09T11:12:50;30.53;;;20.77;;
17283;SDS011;8760;52.248;20.952;2022-11-09T11:15:24;29.80;;;20.43;;
17283;SDS011;8760;52.248;20.952;2022-11-09T11:17:59;30.53;;;20.83;;
17283;SDS011;8760;52.248;20.952;2022-11-09T11:20:29;28.17;;;20.70;;
17283;SDS011;8760;52.248;20.952;2022-11-09T11:23:04;26.73;;;20.93;;
17283;SDS011;8760;52.248;20.952;2022-11-09T11:25:38;27.17;;;20.33;;
17283;SDS011;8760;52.248;20.952;2022-11-09T11:28:25;31.90;;;20.33;;
17283;SDS011;8760;52.248;20.952;2022-11-09T11:30:57;30.53;;;20.93;;
17283;SDS011;8760;52.248;20.952;2022-11-09T11:33:24;27.17;;;20.35;;
17283;SDS011;8760;52.248;20.952;2022-11-09T11:35:55;28.90;;;21.03;;
17283;SDS011;8760;52.248;20.952;2022-11-09T11:38:26;29.60;;;19.30;;
17283;SDS011;8760;52.248;20.952;2022-11-09T11:40:59;29.37;;;20.23;;
17283;SDS011;8760;52.248;20.952;2022-11-09T11:43:39;27.87;;;19.37;;
17283;SDS011;8760;52.248;20.952;2022-11-09T11:46:16;26.00;;;19.73;;
17283;SDS011;8760;52.248;20.952;2022-11-09T11:48:54;25.23;;;19.27;;
17283;SDS011;8760;52.248;20.952;2022-11-09T11:51:31;26.60;;;18.30;;
17283;SDS011;8760;52.248;20.952;2022-11-09T11:54:10;27.80;;;20.07;;
17283;SDS011;8760;52.248;20.952;2022-11-09T11:56:44;28.60;;;18.90;;
17283;SDS011;8760;52.248;20.952;2022-11-09T11:59:19;26.60;;;18.40;;
17283;SDS011;8760;52.248;20.952;2022-11-09T12:02:10;26.50;;;19.17;;
17283;SDS011;8760;52.248;20.952;2022-11-09T12:04:58;31.13;;;19.87;;
17283;SDS011;8760;52.248;20.952;2022-11-09T12:07:50;25.88;;;18.80;;
17283;SDS011;8760;52.248;20.952;2022-11-09T12:10:29;27.67;;;18.30;;
17283;SDS011;8760;52.248;20.952;2022-11-09T12:13:05;24.45;;;17.88;;
17283;SDS011;8760;52.248;20.952;2022-11-09T12:15:44;25.90;;;19.98;;
17283;SDS011;8760;52.248;20.952;2022-11-09T12:18:23;25.73;;;18.25;;
17283;SDS011;8760;52.248;20.952;2022-11-09T12:21:05;27.15;;;18.85;;
17283;SDS011;8760;52.248;20.952;2022-11-09T12:23:51;23.65;;;17.85;;
17283;SDS011;8760;52.248;20.952;2022-11-09T12:26:33;25.35;;;18.90;;
17283;SDS011;8760;52.248;20.952;2022-11-09T12:29:11;25.73;;;18.60;;
17283;SDS011;8760;52.248;20.952;2022-11-09T12:31:47;24.10;;;17.60;;
17283;SDS011;8760;52.248;20.952;2022-11-09T12:34:24;25.73;;;18.60;;
17283;SDS011;8760;52.248;20.952;2022-11-09T12:36:58;26.42;;;18.48;;
17283;SDS011;8760;52.248;20.952;2022-11-09T12:39:31;22.73;;;17.52;;
17283;SDS011;8760;52.248;20.952;2022-11-09T12:42:03;27.70;;;18.33;;
17283;SDS011;8760;52.248;20.952;2022-11-09T12:44:36;26.35;;;18.45;;
17283;SDS011;8760;52.248;20.952;2022-11-09T12:47:09;22.43;;;17.07;;
17283;SDS011;8760;52.248;20.952;2022-11-09T12:49:40;24.08;;;16.70;;
17283;SDS011;8760;52.248;20.952;2022-11-09T12:52:09;25.67;;;18.02;;
17283;SDS011;8760;52.248;20.952;2022-11-09T12:54:40;24.20;;;17.85;;
17283;SDS011;8760;52.248;20.952;2022-11-09T12:57:10;24.73;;;17.37;;
17283;SDS011;8760;52.248;20.952;2022-11-09T12:59:49;25.23;;;17.50;;
17283;SDS011;8760;52.248;20.952;2022-11-09T13:02:25;25.07;;;17.30;;
17283;SDS011;8760;52.248;20.952;2022-11-09T13:04:55;23.87;;;17.27;;
17283;SDS011;8760;52.248;20.952;2022-11-09T13:07:27;25.03;;;18.50;;
17283;SDS011;8760;52.248;20.952;2022-11-09T13:10:23;25.33;;;17.13;;
17283;SDS011;8760;52.248;20.952;2022-11-09T13:18:55;26.57;;;18.53;;
17283;SDS011;8760;52.248;20.952;2022-11-09T13:21:32;25.13;;;17.83;;
17283;SDS011;8760;52.248;20.952;2022-11-09T13:30:00;27.23;;;18.67;;
17283;SDS011;8760;52.248;20.952;2022-11-09T13:32:28;28.23;;;18.33;;
17283;SDS011;8760;52.248;20.952;2022-11-09T13:34:57;29.03;;;19.63;;
17283;SDS011;8760;52.248;20.952;2022-11-09T13:43:12;28.23;;;18.07;;
17283;SDS011;8760;52.248;20.952;2022-11-09T13:45:42;25.77;;;18.70;;
17283;SDS011;8760;52.248;20.952;2022-11-09T13:48:24;27.47;;;19.40;;
17283;SDS011;8760;52.248;20.952;2022-11-09T13:51:13;29.10;;;20.27;;
17283;SDS011;8760;52.248;20.952;2022-11-09T13:53:53;29.73;;;19.67;;
17283;SDS011;8760;52.248;20.952;2022-11-09T13:56:24;31.40;;;19.70;;
17283;SDS011;8760;52.248;20.952;2022-11-09T13:58:54;29.40;;;20.13;;
17283;SDS011;8760;52.248;20.952;2022-11-09T14:01:27;30.27;;;20.43;;
17283;SDS011;8760;52.248;20.952;2022-11-09T14:03:57;29.20;;;19.47;;
17283;SDS011;8760;52.248;20.952;2022-11-09T14:06:27;30.93;;;19.73;;
17283;SDS011;8760;52.248;20.952;2022-11-09T14:08:56;30.67;;;20.07;;
17283;SDS011;8760;52.248;20.952;2022-11-09T14:11:36;34.00;;;20.30;;
17283;SDS011;8760;52.248;20.952;2022-11-09T14:14:18;31.07;;;19.90;;
17283;SDS011;8760;52.248;20.952;2022-11-09T14:17:18;32.93;;;20.17;;
17283;SDS011;8760;52.248;20.952;2022-11-09T14:19:54;33.63;;;20.20;;
17283;SDS011;8760;52.248;20.952;2022-11-09T14:22:31;30.30;;;18.90;;
17283;SDS011;8760;52.248;20.952;2022-11-09T14:25:02;30.33;;;19.93;;
17283;SDS011;8760;52.248;20.952;2022-11-09T14:27:34;27.20;;;18.80;;
17283;SDS011;8760;52.248;20.952;2022-11-09T14:30:01;30.60;;;19.73;;
17283;SDS011;8760;52.248;20.952;2022-11-09T14:32:39;30.80;;;18.90;;
17283;SDS011;8760;52.248;20.952;2022-11-09T14:35:10;32.50;;;19.67;;
17283;SDS011;8760;52.248;20.952;2022-11-09T14:37:45;31.20;;;18.80;;
17283;SDS011;8760;52.248;20.952;2022-11-09T14:40:16;27.23;;;18.30;;
17283;SDS011;8760;52.248;20.952;2022-11-09T14:42:45;28.80;;;19.20;;
17283;SDS011;8760;52.248;20.952;2022-11-09T14:45:14;26.57;;;17.47;;
17283;SDS011;8760;52.248;20.952;2022-11-09T14:47:43;25.03;;;19.27;;
17283;SDS011;8760;52.248;20.952;2022-11-09T14:50:13;28.27;;;18.70;;
17283;SDS011;8760;52.248;20.952;2022-11-09T14:52:42;28.60;;;19.10;;
17283;SDS011;8760;52.248;20.952;2022-11-09T14:55:12;26.13;;;18.63;;
17283;SDS011;8760;52.248;20.952;2022-11-09T14:57:41;32.13;;;20.13;;
17283;SDS011;8760;52.248;20.952;2022-11-09T15:00:29;27.10;;;18.87;;
17283;SDS011;8760;52.248;20.952;2022-11-09T15:02:58;27.37;;;19.30;;
17283;SDS011;8760;52.248;20.952;2022-11-09T15:05:27;31.57;;;20.13;;